Lockwood, Ohio
Current Conditions -  °F | °C
As of 12:51 PM on Friday 24 Oct 2014 (Local Time) from KYNG Reporting Station
Broken Clouds Broken Clouds  
Wind Chill: 56°   Ceiling: 25000
Heat Index: 56°   Visibility: 10mi
Dew Point: 41°   Wind: 9mph
Humidity: 57%   Direction: 250°WSW
Pressure: 30.06"   Gusts: NA
Location:  41.4555°N, 80.829°W
Report Text: KYNG 241651Z 25008KT 10SM FEW030 BKN250 13/05 A3006 RMK AO2 SLP183 T01330050
Loading
Personal Weather Stations






























Interactive Weather Map
Tropical Storm Tracking
New forecast layout! Learn more

10-Day Weather Forecast

Advertisements
Track Severe Weather on mobile